createdAt,value
2022-10-20T00:02:20.055Z,0.20
2022-10-20T00:05:07.167Z,0.10
2022-10-20T00:07:54.094Z,0.53
2022-10-20T00:10:41.197Z,0.67
2022-10-20T00:13:28.407Z,0.20
2022-10-20T00:16:16.619Z,0.93
2022-10-20T00:19:04.175Z,0.00
2022-10-20T00:21:52.176Z,0.40
2022-10-20T00:24:39.048Z,0.00
2022-10-20T00:27:26.141Z,0.10
2022-10-20T00:30:12.959Z,0.20
2022-10-20T00:33:01.002Z,0.20
2022-10-20T00:35:48.055Z,0.53
2022-10-20T00:38:35.299Z,1.90
2022-10-20T00:41:25.023Z,0.00
2022-10-20T00:44:13.629Z,1.03
2022-10-20T00:47:01.419Z,0.10
2022-10-20T00:49:48.590Z,2.17
2022-10-20T00:52:39.125Z,0.00
2022-10-20T00:55:28.676Z,0.13
2022-10-20T00:58:18.115Z,0.00
2022-10-20T01:01:08.224Z,0.50
2022-10-20T01:04:02.010Z,0.53
2022-10-20T01:06:51.307Z,0.03
2022-10-20T01:09:38.639Z,0.40
2022-10-20T01:12:47.680Z,0.10
2022-10-20T01:15:47.912Z,0.07
2022-10-20T01:19:00.252Z,0.00
2022-10-20T01:21:47.004Z,0.20
2022-10-20T01:24:42.885Z,0.20
2022-10-20T01:27:39.487Z,0.20
2022-10-20T01:30:37.265Z,0.13
2022-10-20T01:33:24.261Z,0.10
2022-10-20T01:36:11.229Z,1.00
2022-10-20T01:39:04.082Z,0.20
2022-10-20T01:41:59.682Z,0.33
2022-10-20T01:44:48.708Z,0.30
2022-10-20T01:47:37.314Z,0.20
2022-10-20T01:50:26.944Z,0.20
2022-10-20T01:53:18.253Z,0.57
2022-10-20T01:56:05.111Z,0.40
2022-10-20T01:59:21.759Z,0.10
2022-10-20T02:02:26.137Z,0.60
2022-10-20T02:05:19.189Z,0.10
2022-10-20T02:08:06.147Z,0.17
2022-10-20T02:11:07.417Z,0.77
2022-10-20T02:13:57.576Z,0.20
2022-10-20T02:16:54.428Z,0.37
2022-10-20T02:19:44.673Z,0.30
2022-10-20T02:22:35.336Z,0.20
2022-10-20T02:25:22.865Z,1.47
2022-10-20T02:28:11.949Z,0.20
2022-10-20T02:31:01.057Z,0.40
2022-10-20T02:33:49.412Z,0.10
2022-10-20T02:36:39.457Z,0.20
2022-10-20T02:39:27.396Z,0.40
2022-10-20T02:42:14.290Z,0.00
2022-10-20T02:45:01.177Z,1.10
2022-10-20T02:47:48.126Z,0.53
2022-10-20T02:50:35.031Z,0.10
2022-10-20T02:53:22.579Z,0.17
2022-10-20T02:55:49.492Z,0.43
2022-10-20T02:58:16.373Z,0.10
2022-10-20T03:01:03.323Z,0.03
2022-10-20T03:03:50.389Z,0.00
2022-10-20T03:06:37.707Z,0.50
2022-10-20T03:09:24.610Z,0.13
2022-10-20T03:12:11.639Z,0.57
2022-10-20T03:14:58.503Z,0.67
2022-10-20T03:17:45.348Z,0.00
2022-10-20T03:20:32.265Z,1.27
2022-10-20T03:23:20.171Z,1.30
2022-10-20T03:26:08.039Z,0.30
2022-10-20T03:28:55.031Z,0.07
2022-10-20T03:31:42.041Z,0.10
2022-10-20T03:34:29.100Z,0.10
2022-10-20T03:37:16.139Z,0.40
2022-10-20T03:40:03.474Z,0.10
2022-10-20T03:42:50.472Z,0.27
2022-10-20T03:45:37.511Z,1.13
2022-10-20T03:48:24.547Z,0.73
2022-10-20T03:51:11.472Z,0.33
2022-10-20T03:53:58.532Z,0.10
2022-10-20T03:56:46.289Z,1.67
2022-10-20T03:59:33.202Z,0.10
2022-10-20T04:02:20.268Z,1.57
2022-10-20T04:05:07.073Z,0.53
2022-10-20T04:07:54.187Z,1.43
2022-10-20T04:10:41.095Z,1.80
2022-10-20T04:13:27.959Z,0.70
2022-10-20T04:16:14.900Z,0.50
2022-10-20T04:19:01.840Z,0.03
2022-10-20T04:21:48.760Z,0.30
2022-10-20T04:24:35.880Z,0.53
2022-10-20T04:27:23.123Z,1.20
2022-10-20T04:30:10.044Z,0.10
2022-10-20T04:32:56.944Z,1.43
2022-10-20T04:35:43.950Z,0.40
2022-10-20T04:38:30.885Z,0.23
2022-10-20T04:41:20.283Z,0.93
2022-10-20T04:44:11.728Z,0.80
2022-10-20T04:46:58.665Z,0.40
2022-10-20T04:49:45.559Z,0.47
2022-10-20T04:52:32.524Z,3.20
2022-10-20T04:55:19.522Z,0.50
2022-10-20T04:58:06.769Z,0.40
2022-10-20T05:00:53.840Z,1.60
2022-10-20T05:03:40.887Z,0.50
2022-10-20T05:06:49.254Z,0.30
2022-10-20T05:09:36.795Z,0.40
2022-10-20T05:12:23.948Z,1.23
2022-10-20T05:15:10.823Z,1.33
2022-10-20T06:23:00.600Z,1.97
2022-10-20T06:25:47.370Z,4.30
2022-10-20T06:28:34.387Z,2.37
2022-10-20T06:31:30.844Z,5.73
2022-10-20T06:34:18.887Z,2.73
2022-10-20T06:37:07.441Z,1.83
2022-10-20T06:39:54.517Z,2.50
2022-10-20T06:42:41.292Z,2.47
2022-10-20T06:45:28.875Z,2.80
2022-10-20T06:48:15.692Z,0.83
2022-10-20T06:51:02.679Z,1.50
2022-10-20T06:53:51.265Z,0.63
2022-10-20T06:56:41.924Z,0.83
2022-10-20T06:59:28.961Z,1.17
2022-10-20T07:02:16.111Z,2.13
2022-10-20T07:05:03.212Z,1.00
2022-10-20T07:07:50.352Z,2.37
2022-10-20T07:10:37.367Z,1.97
2022-10-20T07:13:24.420Z,2.57
2022-10-20T07:16:13.731Z,1.77
2022-10-20T07:19:01.376Z,1.63
2022-10-20T07:21:49.355Z,1.97
2022-10-20T07:24:36.553Z,2.00
2022-10-20T07:27:23.563Z,0.80
2022-10-20T07:30:10.796Z,0.90
2022-10-20T07:32:57.733Z,2.73
2022-10-20T07:35:24.898Z,0.70
2022-10-20T07:38:11.722Z,1.37
2022-10-20T07:41:00.687Z,1.17
2022-10-20T07:43:48.384Z,1.27
2022-10-20T07:46:36.403Z,3.40
2022-10-20T07:52:31.363Z,1.10
2022-10-20T07:55:37.563Z,3.17
2022-10-20T07:58:25.518Z,2.40
2022-10-20T08:01:12.380Z,1.40
2022-10-20T08:03:59.563Z,0.70
2022-10-20T08:06:46.922Z,3.97
2022-10-20T08:09:34.138Z,1.17
2022-10-20T08:12:21.352Z,0.53
2022-10-20T08:14:59.431Z,1.07
2022-10-20T08:17:43.395Z,1.80
2022-10-20T08:20:40.656Z,0.90
2022-10-20T08:23:27.473Z,1.63
2022-10-20T08:26:16.232Z,0.77
2022-10-20T08:29:03.114Z,0.93
2022-10-20T08:31:50.446Z,1.33
2022-10-20T08:34:37.347Z,1.60
2022-10-20T08:37:24.442Z,1.33
2022-10-20T08:40:11.290Z,1.13
2022-10-20T08:43:02.203Z,2.43
2022-10-20T08:45:49.086Z,1.87
2022-10-20T08:48:42.535Z,2.80
2022-10-20T08:51:42.556Z,2.00
2022-10-20T08:54:34.401Z,1.17
2022-10-20T08:57:21.354Z,0.87
2022-10-20T09:00:11.385Z,0.60
2022-10-20T09:02:58.362Z,0.23
2022-10-20T09:05:48.217Z,2.03
2022-10-20T09:08:35.522Z,0.50
2022-10-20T09:11:22.716Z,1.60
2022-10-20T09:14:09.981Z,2.67
2022-10-20T09:17:01.087Z,0.87
2022-10-20T09:19:48.699Z,2.27
2022-10-20T09:22:37.171Z,1.07
2022-10-20T09:25:24.329Z,1.17
2022-10-20T09:27:52.283Z,2.60
2022-10-20T09:30:23.050Z,1.53
2022-10-20T09:33:10.660Z,0.50
2022-10-20T09:35:59.820Z,2.00
2022-10-20T09:38:48.431Z,1.13
2022-10-20T09:41:41.568Z,0.77
2022-10-20T09:44:37.333Z,3.30
2022-10-20T09:47:24.447Z,0.57
2022-10-20T09:50:17.807Z,0.70
2022-10-20T09:53:08.770Z,1.40
2022-10-20T09:55:42.481Z,0.10
2022-10-20T09:59:00.219Z,0.10
2022-10-20T10:01:48.110Z,0.20
2022-10-20T10:04:51.892Z,0.83
2022-10-20T10:07:47.866Z,1.60
2022-10-20T10:10:37.827Z,2.33
2022-10-20T10:13:25.250Z,0.27
2022-10-20T10:16:30.005Z,0.30
2022-10-20T10:19:23.817Z,0.37
2022-10-20T10:22:17.409Z,1.17
2022-10-20T10:25:09.626Z,1.03
2022-10-20T10:27:57.003Z,1.33
2022-10-20T10:30:50.976Z,1.00
2022-10-20T10:33:46.613Z,0.83
2022-10-20T10:36:28.617Z,1.70
2022-10-20T10:39:15.958Z,1.07
2022-10-20T10:42:21.754Z,0.63
2022-10-20T10:45:22.754Z,0.83
2022-10-20T10:48:44.971Z,1.57
2022-10-20T10:51:49.161Z,0.67
2022-10-20T10:55:05.079Z,0.63
2022-10-20T10:58:02.506Z,0.10
2022-10-20T11:00:58.501Z,2.27
2022-10-20T11:04:19.380Z,0.40
2022-10-20T11:07:17.277Z,0.30
2022-10-20T11:10:12.948Z,0.80
2022-10-20T11:13:24.395Z,0.73
2022-10-20T11:16:13.633Z,0.83
2022-10-20T11:19:33.878Z,0.37
2022-10-20T11:22:23.644Z,0.57
2022-10-20T11:25:10.615Z,2.30
2022-10-20T11:27:59.021Z,0.93
2022-10-20T11:30:47.045Z,2.93
2022-10-20T11:33:41.500Z,1.90
2022-10-20T11:36:39.378Z,0.33
2022-10-20T11:39:37.713Z,0.93
2022-10-20T11:43:06.588Z,1.20
2022-10-20T11:46:17.490Z,2.73
2022-10-20T11:49:09.946Z,0.87
2022-10-20T11:52:08.677Z,0.93
2022-10-20T11:55:01.325Z,0.37
2022-10-20T11:58:01.736Z,1.27
2022-10-20T12:01:10.301Z,0.93
2022-10-20T12:04:10.049Z,1.03
2022-10-20T12:06:59.952Z,0.10
2022-10-20T12:10:38.412Z,0.20
2022-10-20T12:13:43.563Z,0.37
2022-10-20T12:16:30.472Z,1.70
2022-10-20T12:19:57.661Z,0.60
2022-10-20T12:22:50.544Z,0.10
2022-10-20T12:25:46.118Z,1.10
2022-10-20T12:28:44.791Z,0.30
2022-10-20T12:31:32.005Z,0.17
2022-10-20T12:34:21.425Z,0.47
2022-10-20T12:37:08.712Z,1.13
2022-10-20T12:39:56.011Z,0.17
2022-10-20T12:42:56.128Z,1.90
2022-10-20T12:45:47.455Z,0.30
2022-10-20T12:48:42.612Z,1.53
2022-10-20T12:51:38.956Z,1.43
2022-10-20T12:54:39.633Z,1.60
2022-10-20T12:57:56.980Z,0.20
2022-10-20T13:00:43.999Z,0.30
2022-10-20T13:04:08.991Z,1.50
2022-10-20T13:07:00.604Z,0.73
2022-10-20T13:09:48.120Z,0.27
2022-10-20T13:12:46.353Z,0.37
2022-10-20T13:15:38.252Z,2.10
2022-10-20T13:18:38.160Z,0.77
2022-10-20T13:21:45.042Z,0.27
2022-10-20T13:24:36.214Z,0.33
2022-10-20T13:27:29.676Z,1.40
2022-10-20T13:30:17.021Z,3.73
2022-10-20T13:33:34.244Z,1.13
2022-10-20T13:36:52.664Z,2.90
2022-10-20T13:40:00.851Z,0.67
2022-10-20T13:43:38.842Z,2.10
2022-10-20T13:46:28.641Z,0.33
2022-10-20T13:49:50.477Z,0.70
2022-10-20T13:52:40.506Z,1.03
2022-10-20T13:55:35.393Z,0.67
2022-10-20T13:58:40.244Z,0.10
2022-10-20T14:01:39.126Z,0.63
2022-10-20T14:04:46.214Z,0.10
2022-10-20T14:07:33.707Z,0.97
2022-10-20T14:10:20.643Z,0.57
2022-10-20T14:13:07.948Z,0.30
2022-10-20T14:15:56.950Z,0.97
2022-10-20T14:18:50.367Z,1.27
2022-10-20T14:21:39.149Z,1.10
2022-10-20T14:24:28.957Z,1.30
2022-10-20T14:27:18.311Z,0.10
2022-10-20T14:30:06.223Z,0.53
2022-10-20T14:32:58.952Z,1.00
2022-10-20T14:36:01.136Z,2.67
2022-10-20T14:38:56.260Z,3.17
2022-10-20T14:41:54.649Z,0.30
2022-10-20T14:44:44.329Z,1.93
2022-10-20T14:47:34.894Z,2.43
2022-10-20T14:50:22.410Z,2.00
2022-10-20T14:53:09.455Z,2.50
2022-10-20T14:55:39.909Z,2.40
2022-10-20T14:58:31.356Z,1.10
2022-10-20T15:01:37.894Z,0.57
2022-10-20T15:04:36.294Z,0.77
2022-10-20T15:07:52.138Z,1.60
2022-10-20T15:10:43.487Z,1.70
2022-10-20T15:13:44.848Z,0.40
2022-10-20T15:17:11.854Z,1.20
2022-10-20T15:19:58.816Z,0.97
2022-10-20T15:22:46.008Z,1.93
2022-10-20T15:25:32.988Z,4.93
2022-10-20T15:28:20.053Z,2.67
2022-10-20T15:31:03.244Z,2.60
2022-10-20T15:33:50.144Z,2.37
2022-10-20T15:36:44.570Z,0.97
2022-10-20T15:39:31.793Z,2.43
2022-10-20T15:42:18.989Z,3.90
2022-10-20T15:44:46.102Z,5.87
2022-10-20T15:47:33.080Z,8.63
2022-10-20T15:50:21.796Z,3.57
2022-10-20T15:52:51.296Z,7.37
2022-10-20T15:55:43.868Z,5.07
2022-10-20T15:58:30.940Z,6.97
2022-10-20T16:01:17.896Z,10.67
2022-10-20T16:04:06.479Z,7.87
2022-10-20T16:06:56.560Z,9.27
2022-10-20T16:09:46.162Z,3.07
2022-10-20T16:12:33.068Z,6.77
2022-10-20T16:15:20.627Z,5.43
2022-10-20T16:18:09.886Z,7.50
2022-10-20T16:20:57.232Z,9.33
2022-10-20T16:23:45.037Z,5.27
2022-10-20T16:26:33.996Z,5.83
2022-10-20T16:29:20.951Z,7.53
2022-10-20T16:31:48.652Z,5.03
2022-10-20T16:34:35.548Z,5.40
2022-10-20T16:37:22.685Z,10.07
2022-10-20T16:40:09.539Z,6.97
2022-10-20T16:42:56.579Z,5.70
2022-10-20T16:45:43.690Z,9.27
2022-10-20T16:48:30.560Z,7.00
2022-10-20T16:51:17.480Z,7.70
2022-10-20T16:54:04.699Z,4.93
2022-10-20T16:56:51.665Z,11.57
2022-10-20T16:59:38.634Z,6.37
2022-10-20T17:02:25.732Z,13.20
2022-10-20T17:05:12.612Z,5.07
2022-10-20T17:07:59.476Z,9.00
2022-10-20T17:10:46.408Z,8.47
2022-10-20T17:13:33.326Z,8.43
2022-10-20T17:16:32.539Z,10.60
2022-10-20T17:19:20.968Z,8.40
2022-10-20T17:22:08.119Z,6.90
2022-10-20T17:24:55.080Z,5.40
2022-10-20T17:27:42.163Z,13.33
2022-10-20T17:30:29.687Z,5.87
2022-10-20T17:33:16.958Z,5.00
2022-10-20T17:36:08.425Z,5.33
2022-10-20T17:38:55.765Z,7.67
2022-10-20T17:41:43.712Z,7.17
2022-10-20T17:44:30.770Z,7.73
2022-10-20T17:47:17.616Z,4.47
2022-10-20T17:50:04.598Z,9.13
2022-10-20T17:52:51.542Z,8.73
2022-10-20T17:55:38.577Z,5.20
2022-10-20T17:58:25.558Z,3.33
2022-10-20T18:01:12.636Z,8.07
2022-10-20T18:04:00.737Z,6.80
2022-10-20T18:06:49.607Z,5.27
2022-10-20T18:09:38.055Z,8.13
2022-10-20T18:12:25.089Z,6.73
2022-10-20T18:15:11.981Z,4.83
2022-10-20T18:17:58.994Z,7.10
2022-10-20T18:20:46.061Z,3.70
2022-10-20T18:23:32.997Z,5.13
2022-10-20T18:26:31.578Z,5.43
2022-10-20T18:29:19.706Z,4.67
2022-10-20T18:32:07.307Z,4.13
2022-10-20T18:34:54.313Z,8.87
2022-10-20T18:37:41.250Z,6.90
2022-10-20T18:40:28.993Z,7.77
2022-10-20T18:43:15.912Z,8.03
2022-10-20T18:46:11.601Z,8.10
2022-10-20T18:49:00.572Z,10.07
2022-10-20T18:51:47.744Z,6.60
2022-10-20T18:54:36.207Z,5.93
2022-10-20T18:57:24.263Z,3.17
2022-10-20T19:00:11.134Z,5.03
2022-10-20T19:03:00.838Z,4.00
2022-10-20T19:05:48.649Z,6.67
2022-10-20T19:08:35.845Z,6.27
2022-10-20T19:11:25.526Z,4.30
2022-10-20T19:14:13.057Z,4.50
2022-10-20T19:17:02.303Z,5.80
2022-10-20T19:19:49.332Z,5.70
2022-10-20T19:22:16.287Z,4.13
2022-10-20T19:25:03.344Z,4.23
2022-10-20T19:27:50.127Z,3.27
2022-10-20T19:30:37.241Z,6.83
2022-10-20T19:33:24.574Z,5.13
2022-10-20T19:36:11.656Z,3.83
2022-10-20T19:38:58.479Z,3.07
2022-10-20T19:41:46.230Z,4.53
2022-10-20T19:44:33.672Z,3.67
2022-10-20T19:47:20.795Z,4.10
2022-10-20T19:50:07.617Z,5.40
2022-10-20T19:52:57.949Z,3.10
2022-10-20T19:55:45.832Z,3.20
2022-10-20T19:58:32.910Z,3.53
2022-10-20T20:01:19.862Z,2.97
2022-10-20T20:04:06.927Z,7.67
2022-10-20T20:06:59.630Z,4.47
2022-10-20T20:09:51.571Z,5.03
2022-10-20T20:12:38.776Z,5.27
2022-10-20T20:15:26.089Z,3.03
2022-10-20T20:18:12.956Z,4.23
2022-10-20T20:21:01.243Z,3.53
2022-10-20T20:23:58.696Z,5.10
2022-10-20T20:26:51.521Z,2.37
2022-10-20T20:29:38.414Z,3.60
2022-10-20T20:32:25.567Z,2.50
2022-10-20T20:35:12.589Z,4.57
2022-10-20T20:37:59.456Z,5.80
2022-10-20T20:40:46.504Z,3.00
2022-10-20T20:43:33.388Z,2.93
2022-10-20T20:46:28.810Z,1.90
2022-10-20T20:49:16.183Z,3.63
2022-10-20T20:52:03.127Z,5.93
2022-10-20T20:54:50.097Z,4.30
2022-10-20T20:57:37.493Z,3.03
2022-10-20T21:00:25.430Z,3.10
2022-10-20T21:03:12.428Z,4.27
2022-10-20T21:05:59.337Z,3.80
2022-10-20T21:08:46.295Z,1.67
2022-10-20T21:11:38.936Z,4.80
2022-10-20T21:14:25.852Z,6.63
2022-10-20T21:17:13.291Z,6.43
2022-10-20T21:20:00.231Z,2.97
2022-10-20T21:22:47.260Z,1.77
2022-10-20T21:25:34.400Z,2.90
2022-10-20T21:28:21.241Z,1.87
2022-10-20T21:31:08.156Z,4.63
2022-10-20T21:33:56.590Z,4.43
2022-10-20T21:36:45.080Z,3.20
2022-10-20T21:39:34.363Z,5.83
2022-10-20T21:42:21.495Z,3.23
2022-10-20T21:45:09.352Z,2.10
2022-10-20T21:47:56.368Z,1.73
2022-10-20T21:50:43.358Z,1.57
2022-10-20T21:53:30.249Z,1.13
2022-10-20T21:56:18.720Z,1.43
2022-10-20T21:59:05.571Z,1.37
2022-10-20T22:01:52.936Z,1.87
2022-10-20T22:04:41.920Z,1.90
2022-10-20T22:07:28.771Z,1.70
2022-10-20T22:10:15.707Z,1.50
2022-10-20T22:13:02.703Z,0.50
2022-10-20T22:15:49.767Z,1.80
2022-10-20T22:18:36.840Z,2.20
2022-10-20T22:21:29.299Z,1.83
2022-10-20T22:24:17.568Z,0.70
2022-10-20T22:27:15.393Z,1.00
2022-10-20T22:30:12.193Z,1.23
2022-10-20T22:32:59.121Z,0.73
2022-10-20T22:35:46.231Z,0.40
2022-10-20T22:38:33.301Z,1.43
2022-10-20T22:41:21.166Z,2.03
2022-10-20T22:44:08.104Z,1.90
2022-10-20T22:46:55.231Z,1.63
2022-10-20T22:49:42.156Z,0.30
2022-10-20T22:52:29.655Z,0.90
2022-10-20T22:55:16.564Z,1.23
2022-10-20T22:58:10.641Z,0.53
2022-10-20T23:01:00.976Z,0.77
2022-10-20T23:03:48.180Z,0.17
2022-10-20T23:06:38.758Z,1.03
2022-10-20T23:09:25.774Z,0.73
2022-10-20T23:12:12.739Z,0.30
2022-10-20T23:14:59.676Z,0.50
2022-10-20T23:17:46.686Z,0.90
2022-10-20T23:20:33.802Z,1.53
2022-10-20T23:23:20.742Z,0.23
2022-10-20T23:26:10.452Z,1.20
2022-10-20T23:28:58.658Z,0.70
2022-10-20T23:31:45.659Z,0.17
2022-10-20T23:37:24.665Z,0.30
2022-10-20T23:40:11.668Z,0.37
2022-10-20T23:42:58.895Z,0.37
2022-10-20T23:45:46.099Z,1.07
2022-10-20T23:48:33.296Z,0.83
2022-10-20T23:51:20.240Z,1.23
2022-10-20T23:54:07.361Z,0.60
2022-10-20T23:56:54.276Z,0.37
2022-10-20T23:59:41.260Z,0.93
